Time;durP1;ratioP1;P1;durP2;ratioP2;P2;SDS_P1;SDS_P2;PMS_P1;PMS_P2;Temp;Humidity;BMP_temperature;BMP_pressure;BME280_temperature;BME280_humidity;BME280_pressure;Samples;Min_cycle;Max_cycle;Signal;HPM_P1;HPM_P2
2022/10/24 00:02:09;;;;;;;3.00;2.00;;;;;;;14.17;98.77;100316.22;4973640;28;20472;-82
2022/10/24 00:04:36;;;;;;;3.73;2.00;;;;;;;14.18;98.45;100328.38;4973108;28;20038;-83
2022/10/24 00:07:01;;;;;;;6.35;2.35;;;;;;;14.20;98.00;100313.47;4973442;28;20034;-83
2022/10/24 00:09:27;;;;;;;4.03;2.00;;;;;;;14.19;97.90;100309.16;4972763;28;20379;-82
2022/10/24 00:11:52;;;;;;;4.87;1.90;;;;;;;14.21;97.98;100312.56;4973052;28;20023;-82
2022/10/24 00:14:17;;;;;;;5.13;2.03;;;;;;;14.25;97.01;100311.53;4973326;28;20219;-83
2022/10/24 00:16:42;;;;;;;3.80;1.87;;;;;;;14.26;97.04;100315.84;4972684;28;20034;-83
2022/10/24 00:19:08;;;;;;;3.13;1.77;;;;;;;14.26;97.32;100313.25;4973142;28;20026;-83
2022/10/24 00:21:33;;;;;;;6.17;1.80;;;;;;;14.26;96.44;100301.94;4972993;28;20037;-83
2022/10/24 00:23:58;;;;;;;2.43;1.70;;;;;;;14.26;96.39;100310.63;4973314;28;20538;-83
2022/10/24 00:26:24;;;;;;;3.33;1.60;;;;;;;14.25;96.43;100305.47;4976913;28;20019;-82
2022/10/24 00:28:49;;;;;;;4.50;1.83;;;;;;;14.23;96.43;100308.16;4976657;28;20050;-83
2022/10/24 00:31:17;;;;;;;4.30;1.90;;;;;;;14.24;95.67;100307.22;4975954;28;20086;-83
2022/10/24 00:33:43;;;;;;;3.03;1.90;;;;;;;14.25;95.72;100308.06;4976901;28;20041;-83
2022/10/24 00:36:14;;;;;;;3.55;1.73;;;;;;;14.23;95.63;100310.75;4976602;28;20030;-83
2022/10/24 00:38:39;;;;;;;2.85;1.90;;;;;;;14.22;95.63;100298.59;4966907;28;20043;-83
2022/10/24 00:41:05;;;;;;;6.40;2.13;;;;;;;14.20;95.11;100303.03;4976193;28;20034;-82
2022/10/24 00:43:30;;;;;;;2.60;1.83;;;;;;;14.16;94.24;100301.47;4973653;28;20019;-83
2022/10/24 00:45:57;;;;;;;4.80;1.97;;;;;;;14.17;94.92;100300.56;4956102;29;20023;-83
2022/10/24 00:48:25;;;;;;;3.50;1.73;;;;;;;14.14;94.97;100306.72;4959067;28;20023;-83
2022/10/24 00:50:55;;;;;;;2.88;1.80;;;;;;;14.15;94.97;100305.81;4976177;28;20030;-83
2022/10/24 00:53:22;;;;;;;1.90;1.63;;;;;;;14.13;95.06;100301.59;4975733;28;20038;-82
2022/10/24 00:55:52;;;;;;;3.95;2.08;;;;;;;14.11;93.50;100295.56;4976452;28;20137;-83
2022/10/24 00:58:20;;;;;;;2.90;1.52;;;;;;;14.14;95.04;100296.28;4976097;28;20069;-83
2022/10/24 01:00:45;;;;;;;4.50;2.20;;;;;;;14.14;94.33;100295.47;4975735;28;20029;-83
2022/10/24 01:03:11;;;;;;;3.40;1.73;;;;;;;14.14;94.21;100288.47;4976169;28;20027;-83
2022/10/24 01:06:06;;;;;;;2.37;1.90;;;;;;;14.12;94.06;100292.91;4975414;28;20033;-81
2022/10/24 01:08:48;;;;;;;2.60;2.00;;;;;;;14.10;94.55;100292.13;4956123;28;20286;-82
2022/10/24 01:11:50;;;;;;;6.18;2.22;;;;;;;14.08;93.78;100291.31;4976032;28;20079;-83
2022/10/24 01:14:36;;;;;;;3.90;2.30;;;;;;;14.08;93.39;100295.69;4975479;28;20085;-83
2022/10/24 01:17:16;;;;;;;;;;;;;;;14.08;93.63;100293.94;4975265;28;20085;-82
2022/10/24 01:19:57;;;;;;;6.88;2.40;;;;;;;14.10;92.49;100286.03;4975047;28;19914;-82
2022/10/24 01:22:31;;;;;;;4.97;2.47;;;;;;;14.11;92.07;100286.00;4976266;28;20035;-83
2022/10/24 01:25:14;;;;;;;4.22;2.50;;;;;;;14.13;92.04;100288.53;4975179;28;20074;-83
2022/10/24 01:27:49;;;;;;;4.47;2.20;;;;;;;14.12;92.88;100277.25;4975343;28;20105;-82
2022/10/24 01:30:16;;;;;;;3.78;2.20;;;;;;;14.12;91.98;100279.00;4975925;28;20031;-83
2022/10/24 01:32:44;;;;;;;;;;;;;;;14.15;91.84;100278.91;4975605;28;20537;-83
2022/10/24 01:35:26;;;;;;;6.38;2.55;;;;;;;14.15;91.83;100276.28;4973910;28;19918;-83
2022/10/24 01:38:17;;;;;;;4.47;2.35;;;;;;;14.13;90.98;100276.31;4975114;28;20054;-83
2022/10/24 01:40:55;;;;;;;5.07;2.50;;;;;;;14.16;91.53;100280.59;4975613;28;20041;-82
2022/10/24 01:43:25;;;;;;;4.95;2.35;;;;;;;14.15;91.59;100278.91;4974759;28;20041;-82
2022/10/24 01:45:57;;;;;;;3.78;2.20;;;;;;;14.14;91.35;100272.81;4975056;28;20178;-83
2022/10/24 01:48:24;;;;;;;4.50;2.22;;;;;;;14.11;90.50;100272.94;4974816;28;20091;-82
2022/10/24 01:50:53;;;;;;;4.88;2.20;;;;;;;14.12;89.88;100266.81;4975065;28;20492;-83
2022/10/24 01:53:21;;;;;;;4.30;2.22;;;;;;;14.11;89.07;100265.13;4974925;28;20034;-83
2022/10/24 01:55:48;;;;;;;4.32;2.30;;;;;;;14.12;89.05;100259.00;4974790;28;20432;-84
2022/10/24 01:58:14;;;;;;;4.53;2.58;;;;;;;14.13;88.54;100267.66;4974932;28;20384;-82
2022/10/24 02:00:41;;;;;;;4.10;2.43;;;;;;;14.16;89.13;100259.72;4975039;28;20030;-82
2022/10/24 02:03:29;;;;;;;4.72;2.20;;;;;;;14.18;87.61;100261.34;4974347;28;20027;-83
2022/10/24 02:06:00;;;;;;;3.20;2.17;;;;;;;14.24;88.30;100260.25;4974923;28;20058;-83
2022/10/24 02:08:31;;;;;;;4.70;2.38;;;;;;;14.23;87.64;100250.72;4974476;28;20431;-82
2022/10/24 02:11:01;;;;;;;4.78;2.25;;;;;;;14.24;87.34;100259.41;4973638;28;20045;-83
2022/10/24 02:13:33;;;;;;;3.90;2.20;;;;;;;14.24;88.35;100265.47;4974618;28;20026;-83
2022/10/24 02:16:00;;;;;;;4.63;2.10;;;;;;;14.23;86.76;100260.31;4974335;28;20034;-83
2022/10/24 02:18:28;;;;;;;5.38;2.10;;;;;;;14.25;87.99;100258.47;4974765;28;20026;-82
2022/10/24 02:21:11;;;;;;;4.07;2.00;;;;;;;14.25;86.88;100255.88;4974580;28;20435;-83
2022/10/24 02:24:30;;;;;;;6.53;2.30;;;;;;;14.27;86.09;100260.16;4973997;28;20018;-82
2022/10/24 02:27:10;;;;;;;5.85;2.13;;;;;;;14.31;86.68;100258.25;4933958;29;20389;-83
2022/10/24 02:29:43;;;;;;;5.35;2.30;;;;;;;14.31;85.08;100266.09;4933872;29;20042;-83
2022/10/24 02:32:14;;;;;;;3.47;2.10;;;;;;;14.34;85.50;100255.53;4961880;28;20041;-83
2022/10/24 02:34:42;;;;;;;4.07;1.92;;;;;;;14.32;85.12;100254.72;4974419;28;20416;-83
2022/10/24 02:37:10;;;;;;;2.00;1.80;;;;;;;14.28;84.97;100251.41;4972839;28;20030;-83
2022/10/24 02:39:38;;;;;;;4.45;2.10;;;;;;;14.34;86.63;100255.53;4974804;28;20031;-83
2022/10/24 02:42:05;;;;;;;3.70;1.88;;;;;;;14.30;86.09;100259.16;4974403;28;20078;-83
2022/10/24 02:44:32;;;;;;;6.95;2.10;;;;;;;14.29;84.35;100258.31;4973721;28;20034;-83
2022/10/24 02:47:00;;;;;;;3.58;1.90;;;;;;;14.28;85.19;100264.44;4973771;28;20031;-83
2022/10/24 02:49:26;;;;;;;3.95;2.08;;;;;;;14.25;84.58;100261.09;4974275;28;20105;-83
2022/10/24 02:51:52;;;;;;;2.13;1.90;;;;;;;14.24;83.71;100255.03;4973193;28;20122;-82
2022/10/24 02:54:18;;;;;;;3.30;2.20;;;;;;;14.26;84.60;100258.44;4974358;28;20109;-83
2022/10/24 02:56:49;;;;;;;3.53;2.00;;;;;;;14.27;84.18;100259.28;4973589;28;20449;-83
2022/10/24 02:59:14;;;;;;;3.85;1.92;;;;;;;14.34;84.37;100256.38;4973633;28;20098;-83
2022/10/24 03:01:39;;;;;;;5.87;2.20;;;;;;;14.38;82.99;100264.91;4974354;28;20105;-83
2022/10/24 03:04:05;;;;;;;2.20;1.80;;;;;;;14.41;82.87;100256.13;4973880;28;20023;-83
2022/10/24 03:06:30;;;;;;;4.97;2.30;;;;;;;14.43;83.78;100256.91;4973498;28;20029;-83
2022/10/24 03:08:55;;;;;;;4.03;2.00;;;;;;;14.46;83.64;100259.38;4974006;28;20027;-83
2022/10/24 03:11:20;;;;;;;3.37;1.87;;;;;;;14.44;83.42;100269.91;4973872;28;20033;-83
2022/10/24 03:13:46;;;;;;;3.53;1.87;;;;;;;14.40;82.92;100267.47;4973149;28;20399;-84
2022/10/24 03:16:11;;;;;;;4.70;2.00;;;;;;;14.38;84.32;100270.13;4973845;28;20030;-83
2022/10/24 03:18:36;;;;;;;5.00;1.60;;;;;;;14.32;83.45;100263.41;4973927;28;20459;-83
2022/10/24 03:21:02;;;;;;;2.53;1.80;;;;;;;14.29;83.71;100262.69;4973195;28;20027;-83
2022/10/24 03:23:27;;;;;;;3.00;1.93;;;;;;;14.28;83.82;100259.22;4973560;28;20033;-83
2022/10/24 03:25:54;;;;;;;2.87;2.00;;;;;;;14.30;84.13;100260.00;4973967;28;20023;-83
2022/10/24 03:28:19;;;;;;;3.72;2.00;;;;;;;14.25;83.76;100258.47;4973165;28;20031;-83
2022/10/24 03:30:45;;;;;;;2.27;1.43;;;;;;;14.21;84.00;100266.47;4974007;28;20391;-83
2022/10/24 03:33:10;;;;;;;2.67;1.60;;;;;;;14.19;83.26;100267.41;4973690;28;20038;-83
2022/10/24 03:35:36;;;;;;;2.23;1.47;;;;;;;14.17;84.04;100264.03;4973170;28;20047;-83
2022/10/24 03:38:01;;;;;;;2.33;1.60;;;;;;;14.15;83.93;100260.63;4973339;28;20051;-83
2022/10/24 03:40:26;;;;;;;4.33;1.70;;;;;;;14.15;84.19;100255.41;4972780;28;20027;-83
2022/10/24 03:42:52;;;;;;;2.77;1.70;;;;;;;14.15;83.90;100250.19;4973445;28;20042;-83
2022/10/24 03:45:17;;;;;;;5.57;2.20;;;;;;;14.15;83.67;100243.19;4973718;28;20026;-83
2022/10/24 03:47:42;;;;;;;5.70;2.43;;;;;;;14.15;83.80;100248.41;4972956;28;20060;-83
2022/10/24 03:50:08;;;;;;;5.40;1.90;;;;;;;14.19;83.10;100238.69;4972493;28;20022;-83
2022/10/24 03:52:33;;;;;;;4.10;2.00;;;;;;;14.21;83.41;100229.91;4973218;28;20168;-83
2022/10/24 03:54:58;;;;;;;3.63;1.90;;;;;;;14.26;83.48;100229.72;4972610;28;20459;-83
2022/10/24 03:57:23;;;;;;;3.07;1.87;;;;;;;14.27;83.71;100243.63;4973887;28;20035;-83
2022/10/24 03:59:49;;;;;;;2.80;1.80;;;;;;;14.23;83.79;100239.44;4975890;28;20464;-83
2022/10/24 04:02:14;;;;;;;3.73;1.80;;;;;;;14.21;83.67;100239.50;4976809;28;20546;-83
2022/10/24 04:04:40;;;;;;;2.70;1.77;;;;;;;14.20;83.32;100243.88;4977494;28;20535;-83
2022/10/24 04:07:06;;;;;;;7.88;2.10;;;;;;;14.22;83.03;100246.41;4976780;28;20417;-83
2022/10/24 04:09:31;;;;;;;4.07;1.73;;;;;;;14.25;83.56;100241.06;4976543;28;20026;-84
2022/10/24 04:11:56;;;;;;;3.50;1.80;;;;;;;14.25;83.01;100254.13;4976939;28;20035;-83
2022/10/24 04:14:22;;;;;;;3.90;1.87;;;;;;;14.28;83.67;100248.78;4976878;28;20073;-84
2022/10/24 04:16:47;;;;;;;4.73;2.20;;;;;;;14.27;83.89;100244.47;4975989;28;20492;-83
2022/10/24 04:19:16;;;;;;;4.60;1.80;;;;;;;14.28;83.50;100237.47;4976802;28;20034;-82
2022/10/24 04:21:41;;;;;;;2.67;1.83;;;;;;;14.29;83.86;100240.06;4977020;28;20027;-82
2022/10/24 04:24:06;;;;;;;3.07;1.63;;;;;;;14.33;82.34;100238.16;4976149;28;20088;-82
2022/10/24 04:26:31;;;;;;;3.77;1.80;;;;;;;14.26;82.88;100229.72;4976635;28;20027;-82
2022/10/24 04:28:57;;;;;;;2.87;1.87;;;;;;;14.27;83.06;100233.19;4977015;28;20486;-83
2022/10/24 04:31:22;;;;;;;2.63;1.80;;;;;;;14.26;83.25;100237.56;4976118;28;20015;-82
2022/10/24 04:33:47;;;;;;;4.03;1.73;;;;;;;14.24;82.90;100234.16;4976731;28;20145;-82
2022/10/24 04:36:12;;;;;;;3.10;1.70;;;;;;;14.23;83.20;100224.63;4976468;28;20030;-82
2022/10/24 04:38:38;;;;;;;4.50;1.97;;;;;;;14.25;82.42;100227.16;4976227;28;20491;-82
2022/10/24 04:41:03;;;;;;;3.13;1.70;;;;;;;14.25;82.94;100237.59;4976341;28;20070;-82
2022/10/24 04:43:29;;;;;;;5.33;2.00;;;;;;;14.24;83.15;100228.94;4976713;28;20031;-84
2022/10/24 04:45:54;;;;;;;2.60;1.40;;;;;;;14.21;82.49;100229.06;4974657;28;20427;-84
2022/10/24 04:48:19;;;;;;;3.03;1.70;;;;;;;14.24;81.99;100228.94;4976130;28;20026;-83
2022/10/24 04:50:46;;;;;;;3.77;1.67;;;;;;;14.22;82.44;100241.19;4975656;28;20022;-83
2022/10/24 04:53:12;;;;;;;2.60;1.60;;;;;;;14.19;82.82;100241.31;4975914;28;20376;-83
2022/10/24 04:55:37;;;;;;;3.70;1.50;;;;;;;14.17;83.16;100236.16;4976204;28;20050;-83
2022/10/24 04:58:03;;;;;;;2.23;1.50;;;;;;;14.18;82.55;100235.25;4975260;28;20030;-83
2022/10/24 05:00:29;;;;;;;2.27;1.40;;;;;;;14.21;83.46;100235.13;4976445;28;20019;-84
2022/10/24 05:02:55;;;;;;;4.63;1.80;;;;;;;14.25;82.31;100238.47;4976113;28;20278;-83
2022/10/24 05:05:21;;;;;;;4.87;1.77;;;;;;;14.29;82.46;100245.28;4975622;28;20023;-83
2022/10/24 05:07:46;;;;;;;4.57;1.70;;;;;;;14.32;83.27;100242.50;4976181;28;20033;-83
2022/10/24 05:10:13;;;;;;;4.90;1.50;;;;;;;14.32;82.28;100234.69;4974509;28;20471;-83
2022/10/24 05:12:39;;;;;;;2.95;1.63;;;;;;;14.35;83.09;100231.97;4975286;28;20051;-84
2022/10/24 05:15:05;;;;;;;2.70;1.60;;;;;;;14.38;82.85;100245.81;4975535;28;20066;-83
2022/10/24 05:17:31;;;;;;;4.18;1.67;;;;;;;14.36;82.57;100246.72;4975959;28;20030;-83
2022/10/24 05:19:56;;;;;;;4.67;1.60;;;;;;;14.36;82.46;100243.25;4974938;28;20090;-83
2022/10/24 05:22:22;;;;;;;5.60;1.87;;;;;;;14.32;82.54;100255.56;4975659;28;20027;-83
2022/10/24 05:24:48;;;;;;;5.38;1.73;;;;;;;14.38;82.72;100256.25;4975638;28;20476;-82
2022/10/24 05:27:13;;;;;;;4.37;1.90;;;;;;;14.38;82.28;100259.69;4974702;28;20030;-83
2022/10/24 05:29:39;;;;;;;4.63;2.00;;;;;;;14.46;82.56;100260.25;4975611;28;20031;-82
2022/10/24 05:32:04;;;;;;;4.63;1.90;;;;;;;14.48;82.58;100258.41;4974474;28;20081;-82
2022/10/24 05:34:29;;;;;;;7.43;2.20;;;;;;;14.50;82.76;100268.81;4975088;28;20041;-82
2022/10/24 05:36:55;;;;;;;7.50;2.20;;;;;;;14.50;82.15;100266.19;4974174;28;20038;-82
2022/10/24 05:39:20;;;;;;;6.20;1.80;;;;;;;14.54;82.66;100257.31;4975428;28;20023;-83
2022/10/24 05:41:45;;;;;;;2.60;1.50;;;;;;;14.56;83.07;100270.31;4974790;28;20038;-82
2022/10/24 05:44:12;;;;;;;6.67;1.90;;;;;;;14.56;81.95;100262.47;4974806;28;20037;-82
2022/10/24 05:46:37;;;;;;;5.22;1.65;;;;;;;14.59;82.10;100264.94;4975283;28;20034;-83
2022/10/24 05:49:03;;;;;;;6.77;1.80;;;;;;;14.61;82.65;100255.28;4974223;28;20027;-82
2022/10/24 05:51:28;;;;;;;4.90;1.77;;;;;;;14.63;82.38;100266.53;4975466;28;20050;-82
2022/10/24 05:53:53;;;;;;;6.17;1.70;;;;;;;14.67;82.11;100263.75;4974785;28;20491;-83
2022/10/24 05:56:19;;;;;;;4.20;1.80;;;;;;;14.66;82.04;100261.19;4973788;28;20027;-83
2022/10/24 05:58:44;;;;;;;3.83;1.70;;;;;;;14.64;81.89;100258.63;4974475;28;20117;-83
2022/10/24 06:01:09;;;;;;;4.43;1.53;;;;;;;14.63;81.87;100267.38;4973327;28;20094;-83
2022/10/24 06:03:34;;;;;;;7.20;1.73;;;;;;;14.63;82.27;100272.63;4975106;28;20498;-82
2022/10/24 06:06:05;;;;;;;5.30;1.80;;;;;;;14.60;81.71;100270.13;4974604;28;20015;-82
2022/10/24 06:08:32;;;;;;;6.22;1.70;;;;;;;14.54;81.69;100272.13;4974927;28;20042;-82
2022/10/24 06:10:58;;;;;;;6.78;1.90;;;;;;;14.56;81.84;100280.75;4974893;28;20030;-82
2022/10/24 06:13:23;;;;;;;4.23;1.40;;;;;;;14.56;81.85;100278.97;4974898;28;20026;-82
2022/10/24 06:15:48;;;;;;;5.07;2.17;;;;;;;14.56;81.73;100278.97;4974348;28;20032;-82
2022/10/24 06:18:13;;;;;;;5.90;2.17;;;;;;;14.55;81.30;100284.28;4974362;28;20216;-83
2022/10/24 06:20:39;;;;;;;5.37;1.47;;;;;;;14.56;82.13;100289.44;4974752;28;20027;-83
2022/10/24 06:23:04;;;;;;;5.03;1.60;;;;;;;14.54;82.20;100290.41;4973181;28;20085;-83
2022/10/24 06:25:29;;;;;;;4.30;1.70;;;;;;;14.51;82.05;100286.16;4974662;28;20073;-82
2022/10/24 06:27:54;;;;;;;5.67;1.60;;;;;;;14.49;81.78;100294.03;4974239;28;20510;-83
2022/10/24 06:30:20;;;;;;;6.47;1.60;;;;;;;14.47;82.20;100285.41;4974001;28;20035;-84
2022/10/24 06:32:45;;;;;;;6.33;1.80;;;;;;;14.50;82.38;100282.69;4974336;28;20026;-83
2022/10/24 06:35:12;;;;;;;8.17;1.70;;;;;;;14.41;82.33;100290.06;4973872;28;20038;-82
2022/10/24 06:37:37;;;;;;;;;;;;;;;14.47;82.09;100282.81;4974041;28;20062;-84
2022/10/24 06:40:03;;;;;;;8.50;1.70;;;;;;;14.36;83.09;100298.91;4973869;28;19914;-84
2022/10/24 06:42:29;;;;;;;7.07;1.83;;;;;;;14.35;82.88;100305.06;4974378;28;20455;-82
2022/10/24 06:44:54;;;;;;;8.40;2.00;;;;;;;14.31;83.09;100303.47;4972937;28;20031;-83
2022/10/24 06:47:19;;;;;;;7.63;1.70;;;;;;;14.31;83.48;100308.69;4974367;28;20027;-83
2022/10/24 06:49:44;;;;;;;6.30;1.67;;;;;;;14.30;83.26;100325.25;4974206;28;20023;-83
2022/10/24 06:52:10;;;;;;;6.17;1.90;;;;;;;14.32;83.72;100314.78;4973246;28;20033;-82
2022/10/24 06:54:36;;;;;;;4.73;1.80;;;;;;;14.29;83.76;100322.72;4973581;28;20100;-82
2022/10/24 06:57:01;;;;;;;3.97;1.60;;;;;;;14.28;83.71;100327.09;4974244;28;20019;-82
2022/10/24 06:59:26;;;;;;;10.30;1.97;;;;;;;14.27;84.10;100324.53;4972718;28;20034;-83
2022/10/24 07:01:52;;;;;;;6.57;1.80;;;;;;;14.28;83.25;100332.31;4973608;28;20031;-82
2022/10/24 07:04:18;;;;;;;6.27;1.60;;;;;;;14.34;84.00;100344.28;4974278;28;20015;-82
2022/10/24 07:06:43;;;;;;;5.37;1.67;;;;;;;14.38;84.01;100351.06;4973389;28;20065;-83
2022/10/24 07:09:10;;;;;;;7.10;1.50;;;;;;;14.42;83.87;100337.00;4973826;28;20359;-84
2022/10/24 07:11:36;;;;;;;6.47;1.50;;;;;;;14.41;84.51;100339.66;4972738;28;20027;-83
2022/10/24 07:14:01;;;;;;;8.70;1.67;;;;;;;14.38;85.03;100342.41;4973678;28;20035;-83
2022/10/24 07:16:26;;;;;;;7.33;2.00;;;;;;;14.34;85.25;100347.72;4974056;28;20027;-82
2022/10/24 07:18:52;;;;;;;6.23;1.93;;;;;;;14.31;85.28;100347.84;4973187;28;20054;-82
2022/10/24 07:21:22;;;;;;;5.67;2.17;;;;;;;14.28;85.74;100350.59;4973726;28;20049;-82
2022/10/24 07:23:48;;;;;;;3.53;1.75;;;;;;;14.29;85.97;100352.28;4974003;28;20073;-83
2022/10/24 07:26:15;;;;;;;6.38;1.70;;;;;;;14.31;86.06;100360.06;4973044;28;20034;-83
2022/10/24 07:28:41;;;;;;;;;;;;;;;14.28;86.55;100360.16;4974683;28;20030;-83
2022/10/24 07:31:07;;;;;;;;;;;;;;;14.29;86.45;100370.56;4973537;28;19918;-82
2022/10/24 07:33:33;;;;;;;6.03;1.60;;;;;;;14.33;86.90;100384.34;4972968;28;20012;-82
2022/10/24 07:35:58;;;;;;;4.70;1.40;;;;;;;14.36;86.90;100384.19;4977525;28;20027;-82
2022/10/24 07:38:24;;;;;;;3.47;1.30;;;;;;;14.38;87.00;100398.06;4977712;28;20043;-83
2022/10/24 07:40:49;;;;;;;5.03;1.70;;;;;;;14.40;86.87;100385.78;4977074;28;20122;-83
2022/10/24 07:43:15;;;;;;;5.07;1.60;;;;;;;14.43;86.60;100385.69;4977585;28;20088;-82
2022/10/24 07:45:42;;;;;;;7.27;1.80;;;;;;;14.47;86.39;100392.47;4977825;28;20019;-83
2022/10/24 07:48:07;;;;;;;;;;;;;;;14.49;86.43;100397.66;4977080;28;20026;-83
2022/10/24 07:50:34;;;;;;;5.90;1.70;;;;;;;14.57;86.38;100399.97;4977484;28;19920;-83
2022/10/24 07:53:00;;;;;;;3.17;1.50;;;;;;;14.62;86.19;100406.72;4976547;28;20031;-82
2022/10/24 07:55:25;;;;;;;4.77;1.43;;;;;;;14.63;86.06;100413.63;4976783;28;20082;-83
2022/10/24 07:57:50;;;;;;;3.33;1.10;;;;;;;14.63;86.96;100423.22;4977413;28;20023;-83
2022/10/24 08:00:16;;;;;;;3.53;1.30;;;;;;;14.63;86.77;100426.69;4977286;28;20027;-82
2022/10/24 08:02:41;;;;;;;4.13;1.60;;;;;;;14.63;87.19;100420.59;4976418;28;20365;-83
2022/10/24 08:05:08;;;;;;;5.10;1.63;;;;;;;14.60;86.46;100428.56;4976822;28;20035;-83
2022/10/24 08:07:34;;;;;;;3.80;1.45;;;;;;;14.60;86.06;100424.19;4977408;28;20035;-81
2022/10/24 08:10:00;;;;;;;4.70;1.58;;;;;;;14.61;86.06;100431.13;4975919;28;20102;-81
2022/10/24 08:12:25;;;;;;;2.80;1.50;;;;;;;14.61;86.27;100438.09;4976997;28;20034;-81
2022/10/24 08:14:52;;;;;;;4.63;1.50;;;;;;;14.59;86.53;100434.69;4976168;28;20109;-81
2022/10/24 08:17:18;;;;;;;3.20;1.17;;;;;;;14.60;86.56;100437.25;4977140;28;20019;-83
2022/10/24 08:19:44;;;;;;;3.88;1.70;;;;;;;14.63;85.86;100442.38;4975942;28;20034;-82
2022/10/24 08:22:10;;;;;;;;;;;;;;;14.77;85.17;100441.84;4965841;28;20046;-82
2022/10/24 08:24:36;;;;;;;6.40;1.60;;;;;;;14.79;85.78;100444.41;4975055;28;20001;-82
2022/10/24 08:27:01;;;;;;;6.60;1.50;;;;;;;14.88;85.37;100438.81;4975575;28;20030;-82
2022/10/24 08:29:26;;;;;;;3.03;1.20;;;;;;;14.95;85.17;100448.13;4975363;28;20077;-82
2022/10/24 08:31:53;;;;;;;4.87;1.37;;;;;;;15.02;84.81;100453.09;4976097;28;20054;-82
2022/10/24 08:34:20;;;;;;;8.15;1.67;;;;;;;15.05;84.38;100456.41;4965212;28;20035;-83
2022/10/24 08:36:47;;;;;;;7.90;1.60;;;;;;;15.12;83.92;100457.88;4971659;28;20058;-86
2022/10/24 08:39:12;;;;;;;5.72;1.58;;;;;;;15.21;84.19;100454.03;4974934;28;20051;-86
2022/10/24 08:41:42;;;;;;;5.33;1.47;;;;;;;15.33;83.12;100462.28;4976854;28;20105;-87
2022/10/24 08:44:38;;;;;;;6.45;1.65;;;;;;;15.43;83.57;100456.63;4975802;28;20380;-86
2022/10/24 08:47:30;;;;;;;7.95;1.75;;;;;;;15.51;81.72;100466.78;4968181;28;20045;-86
2022/10/24 08:50:22;;;;;;;7.35;1.70;;;;;;;15.59;82.35;100472.50;4975438;28;20031;-83
2022/10/24 08:53:09;;;;;;;6.20;1.67;;;;;;;15.67;82.24;100456.50;4976291;28;20045;-83
2022/10/24 08:55:54;;;;;;;5.70;1.60;;;;;;;15.69;80.94;100451.19;4975966;28;20038;-83
2022/10/24 08:58:24;;;;;;;5.50;1.40;;;;;;;15.73;81.01;100458.84;4971925;28;20027;-83
2022/10/24 09:00:53;;;;;;;5.47;1.50;;;;;;;15.79;81.40;100467.34;4968062;28;20614;-83
2022/10/24 09:03:33;;;;;;;5.32;1.30;;;;;;;15.87;81.71;100465.28;4957078;28;20039;-84
2022/10/24 09:06:04;;;;;;;6.15;1.88;;;;;;;15.98;79.72;100476.13;4956068;28;20031;-82
2022/10/24 09:08:52;;;;;;;5.00;1.52;;;;;;;15.98;79.54;100472.69;4956872;28;20060;-83
2022/10/24 09:11:35;;;;;;;7.07;1.45;;;;;;;16.06;78.67;100465.31;4956107;28;20035;-83
2022/10/24 09:14:13;;;;;;;7.47;1.50;;;;;;;16.10;79.02;100466.88;4972332;28;20125;-85
2022/10/24 09:16:41;;;;;;;7.05;1.52;;;;;;;16.17;77.06;100477.91;4976174;28;20086;-85
2022/10/24 09:19:15;;;;;;;3.80;1.63;;;;;;;16.24;78.31;100474.13;4975189;28;20486;-83
2022/10/24 09:21:42;;;;;;;6.03;1.83;;;;;;;16.31;75.98;100469.47;4975910;28;20472;-84
2022/10/24 09:24:33;;;;;;;6.25;1.55;;;;;;;16.31;76.01;100490.41;4975170;28;20025;-85
2022/10/24 09:27:03;;;;;;;6.95;1.73;;;;;;;16.27;75.08;100481.81;4974696;28;20047;-84
2022/10/24 09:29:30;;;;;;;5.57;1.67;;;;;;;16.36;77.30;100498.91;4975770;28;20030;-83
2022/10/24 09:31:56;;;;;;;6.82;1.67;;;;;;;16.39;77.09;100497.91;4975639;28;20026;-83
2022/10/24 09:34:21;;;;;;;8.83;2.00;;;;;;;16.44;75.86;100493.31;4974639;28;20034;-83
2022/10/24 09:36:46;;;;;;;6.30;1.80;;;;;;;16.44;75.42;100499.41;4975283;28;20472;-83
2022/10/24 09:39:28;;;;;;;6.50;1.67;;;;;;;16.49;76.37;100505.28;4974441;28;20077;-83
2022/10/24 09:41:54;;;;;;;5.30;1.60;;;;;;;16.57;76.31;100494.47;4975133;28;20022;-83
2022/10/24 09:44:30;;;;;;;8.68;1.85;;;;;;;16.68;73.64;100509.69;4975701;28;20023;-85
2022/10/24 09:46:55;;;;;;;4.80;1.47;;;;;;;16.73;74.80;100512.94;4973791;28;20101;-82
2022/10/24 09:49:24;;;;;;;4.60;1.47;;;;;;;16.80;75.27;100513.50;4961451;28;20738;-85
2022/10/24 09:52:01;;;;;;;6.13;1.50;;;;;;;16.87;73.63;100533.25;4955678;29;20106;-85
2022/10/24 09:54:28;;;;;;;6.35;1.88;;;;;;;16.91;75.67;100513.00;4972175;28;20070;-84
2022/10/24 09:57:22;;;;;;;6.30;1.80;;;;;;;16.94;74.65;100515.50;4974163;28;20034;-84
2022/10/24 09:59:59;;;;;;;11.02;2.72;;;;;;;16.92;73.73;100518.19;4975121;28;20480;-78
2022/10/24 10:02:33;;;;;;;5.75;1.45;;;;;;;16.95;74.21;100523.28;4974360;28;20034;-84
2022/10/24 10:05:01;;;;;;;3.97;1.17;;;;;;;17.03;75.42;100525.56;4974620;28;20041;-83
2022/10/24 10:07:30;;;;;;;5.38;1.67;;;;;;;17.08;72.66;100525.34;4974245;28;20033;-84
2022/10/24 10:09:59;;;;;;;7.72;2.10;;;;;;;17.00;71.65;100532.72;4974713;28;20081;-83
2022/10/24 10:12:40;;;;;;;6.03;1.77;;;;;;;16.82;73.16;100538.72;4974475;28;20403;-84
2022/10/24 10:15:28;;;;;;;7.15;1.70;;;;;;;16.73;71.84;100533.91;4974123;28;20027;-83
2022/10/24 10:17:58;;;;;;;5.40;1.85;;;;;;;16.73;73.98;100543.53;4974774;28;20086;-84
2022/10/24 10:20:26;;;;;;;4.93;1.45;;;;;;;16.85;74.50;100550.81;4974446;28;20033;-83
2022/10/24 10:22:52;;;;;;;5.47;1.70;;;;;;;16.90;74.79;100558.47;4954468;28;20085;-83
2022/10/24 10:25:30;;;;;;;7.10;1.90;;;;;;;17.05;74.04;100549.94;4955776;29;20552;-92
2022/10/24 10:27:56;;;;;;;7.75;1.98;;;;;;;17.18;73.60;100562.47;4955283;29;20042;-82
2022/10/24 10:30:21;;;;;;;8.27;1.73;;;;;;;17.32;72.86;100553.94;4953895;28;20019;-82
2022/10/24 10:33:11;;;;;;;6.33;1.83;;;;;;;17.39;71.86;100569.31;4955250;28;20034;-82
2022/10/24 10:35:40;;;;;;;4.65;1.67;;;;;;;17.42;72.42;100563.91;4954379;29;20031;-82
2022/10/24 10:38:45;;;;;;;7.20;1.90;;;;;;;17.48;71.10;100567.16;4954704;29;20442;-83
2022/10/24 10:41:41;;;;;;;6.55;1.98;;;;;;;17.43;72.53;100568.25;4954967;29;20074;-83
2022/10/24 10:44:32;;;;;;;7.03;1.65;;;;;;;17.28;71.81;100589.94;4953381;29;20122;-83
2022/10/24 10:47:26;;;;;;;8.93;1.98;;;;;;;17.03;71.44;100591.09;4958912;28;20109;-82
2022/10/24 10:49:56;;;;;;;6.95;1.90;;;;;;;16.80;70.12;100586.88;4973295;28;20428;-83
2022/10/24 10:52:22;;;;;;;7.05;1.60;;;;;;;16.62;71.37;100605.13;4974517;28;20110;-82
2022/10/24 10:55:12;;;;;;;6.50;1.70;;;;;;;16.48;74.02;100618.84;4974337;28;20126;-83
2022/10/24 10:57:58;;;;;;;5.50;1.55;;;;;;;16.34;76.73;100605.47;4973646;28;20027;-83
2022/10/24 11:00:42;;;;;;;4.85;1.50;;;;;;;16.13;77.30;100602.03;4974486;28;20046;-83
2022/10/24 11:03:36;;;;;;;6.57;1.77;;;;;;;15.84;79.07;100610.19;4974093;28;20421;-85
2022/10/24 11:06:35;;;;;;;2.67;1.30;;;;;;;15.63;81.26;100614.50;4973600;28;20049;-82
2022/10/24 11:09:17;;;;;;;3.80;1.40;;;;;;;15.47;82.79;100622.09;4973396;28;20033;-83
2022/10/24 11:11:50;;;;;;;5.25;1.70;;;;;;;15.37;83.14;100623.38;4973429;28;20027;-83
2022/10/24 11:14:30;;;;;;;4.88;1.77;;;;;;;15.31;83.12;100615.78;4974164;28;20037;-83
2022/10/24 11:17:01;;;;;;;2.63;1.42;;;;;;;15.31;85.95;100607.94;4973494;28;20102;-83
2022/10/24 11:19:43;;;;;;;5.90;1.65;;;;;;;15.39;85.88;100614.53;4973386;28;20029;-83
2022/10/24 11:22:18;;;;;;;5.30;1.50;;;;;;;15.50;84.78;100614.13;4973396;28;20035;-83
2022/10/24 11:24:51;;;;;;;4.50;1.45;;;;;;;15.62;86.04;100610.16;4972847;28;20114;-84
2022/10/24 11:27:26;;;;;;;3.88;1.52;;;;;;;15.74;85.03;100614.91;4973837;28;20038;-82
2022/10/24 11:29:54;;;;;;;4.65;1.50;;;;;;;15.88;85.29;100614.38;4973895;28;20043;-82
2022/10/24 11:32:34;;;;;;;6.18;1.80;;;;;;;16.06;85.44;100617.16;4972921;28;20106;-81
2022/10/24 11:35:06;;;;;;;5.20;1.50;;;;;;;16.10;82.58;100617.88;4972942;28;20035;-83
2022/10/24 11:37:45;;;;;;;5.70;1.58;;;;;;;16.13;83.57;100617.75;4973674;28;20062;-81
2022/10/24 11:40:18;;;;;;;6.68;1.58;;;;;;;16.12;80.62;100637.81;4972970;28;20424;-80